Time;durP1;ratioP1;P1;durP2;ratioP2;P2;SDS_P1;SDS_P2;PMS_P1;PMS_P2;Temp;Humidity;BMP_temperature;BMP_pressure;BME280_temperature;BME280_humidity;BME280_pressure;Samples;Min_cycle;Max_cycle;Signal;HPM_P1;HPM_P2
2021/01/03 00:00:21;;;;;;;84.00;30.98;;;;;;;-0.65;78.50;94393.44;5012805;28;20407;-61
2021/01/03 00:02:48;;;;;;;85.97;28.45;;;;;;;-1.32;82.04;94397.34;5012954;28;20084;-61
2021/01/03 00:05:16;;;;;;;73.60;28.60;;;;;;;-1.25;82.14;94400.53;5012837;28;20049;-59
2021/01/03 00:07:41;;;;;;;84.65;28.98;;;;;;;-1.44;81.47;94396.69;5012781;28;20038;-59
2021/01/03 00:10:08;;;;;;;78.28;27.73;;;;;;;-1.47;82.41;94397.22;5012675;28;20117;-60
2021/01/03 00:12:33;;;;;;;78.28;28.25;;;;;;;-1.40;81.91;94371.69;5014483;28;20029;-59
2021/01/03 00:14:58;;;;;;;77.30;30.92;;;;;;;-1.02;80.32;94370.72;5012643;28;20046;-59
2021/01/03 00:17:23;;;;;;;76.93;28.50;;;;;;;-1.17;80.35;94358.34;5012633;28;20060;-60
2021/01/03 00:19:49;;;;;;;83.72;30.10;;;;;;;-0.52;78.50;94372.84;5012355;28;20124;-59
2021/01/03 00:22:14;;;;;;;86.03;30.10;;;;;;;-0.17;77.68;94381.91;5012335;28;20037;-61
2021/01/03 00:24:39;;;;;;;82.25;29.33;;;;;;;-0.42;76.65;94359.06;5014467;28;20411;-66
2021/01/03 00:27:05;;;;;;;83.00;31.58;;;;;;;-0.36;76.86;94357.25;5012304;28;20134;-63
2021/01/03 00:29:30;;;;;;;84.45;29.88;;;;;;;0.20;76.69;94378.38;5010589;28;20492;-62
2021/01/03 00:31:59;;;;;;;71.93;28.55;;;;;;;0.78;76.00;94413.06;5012337;28;20399;-66
2021/01/03 00:34:25;;;;;;;77.85;29.52;;;;;;;1.04;74.69;94382.44;5012174;28;20034;-63
2021/01/03 00:36:50;;;;;;;82.22;31.58;;;;;;;1.37;73.91;94393.41;5014171;28;20026;-63
2021/01/03 00:39:15;;;;;;;80.28;30.10;;;;;;;0.61;71.54;94368.00;5010974;28;20503;-63
2021/01/03 00:41:41;;;;;;;84.82;30.48;;;;;;;-0.46;77.01;94383.31;5011015;28;20048;-63
2021/01/03 00:44:06;;;;;;;80.63;30.13;;;;;;;-0.90;79.38;94373.16;5011112;28;20723;-65
2021/01/03 00:46:31;;;;;;;89.28;30.88;;;;;;;-0.22;77.49;94349.75;5011120;28;20036;-63
2021/01/03 00:48:57;;;;;;;81.72;31.10;;;;;;;0.46;76.74;94380.03;5012733;28;20033;-63
2021/01/03 00:51:22;;;;;;;87.35;32.15;;;;;;;0.72;75.26;94377.47;5010767;28;20507;-64
2021/01/03 00:53:48;;;;;;;93.53;32.65;;;;;;;1.04;74.47;94395.53;5010820;28;20044;-63
2021/01/03 00:56:13;;;;;;;83.05;32.15;;;;;;;1.07;72.93;94391.59;5011042;28;20064;-64
2021/01/03 00:58:38;;;;;;;87.80;32.75;;;;;;;0.29;74.22;94360.38;5010546;28;20125;-63
2021/01/03 01:01:04;;;;;;;85.75;31.75;;;;;;;-0.48;76.94;94354.06;5010977;28;20105;-63
2021/01/03 01:03:30;;;;;;;89.00;31.50;;;;;;;-0.47;78.27;94369.47;5012437;28;20022;-61
2021/01/03 01:05:56;;;;;;;85.85;32.03;;;;;;;-0.28;77.70;94348.94;5008421;28;20053;-62
2021/01/03 01:08:22;;;;;;;86.75;29.63;;;;;;;-0.28;77.29;94388.91;5010599;28;20407;-61
2021/01/03 01:10:47;;;;;;;90.40;32.00;;;;;;;-0.55;78.80;94352.47;5010726;28;20157;-63
2021/01/03 01:13:13;;;;;;;86.75;32.58;;;;;;;-0.09;78.37;94412.81;5010422;28;20113;-62
2021/01/03 01:15:38;;;;;;;81.65;32.10;;;;;;;0.12;78.01;94399.81;5012663;28;20484;-62
2021/01/03 01:18:04;;;;;;;100.18;32.97;;;;;;;0.11;77.61;94411.31;5010675;28;20507;-63
2021/01/03 01:20:32;;;;;;;92.75;32.55;;;;;;;0.29;77.05;94376.06;5010131;28;20042;-62
2021/01/03 01:22:59;;;;;;;97.18;30.90;;;;;;;-0.25;78.58;94407.75;5010119;28;20038;-64
2021/01/03 01:25:26;;;;;;;99.95;33.40;;;;;;;-0.29;80.20;94410.09;5010456;28;20092;-61
2021/01/03 01:27:53;;;;;;;97.07;33.45;;;;;;;-0.35;80.30;94384.97;5012091;28;20197;-62
2021/01/03 01:30:20;;;;;;;97.07;32.80;;;;;;;-0.73;81.98;94388.66;5009990;28;20045;-61
2021/01/03 01:32:45;;;;;;;95.45;34.20;;;;;;;-0.34;81.42;94403.00;5009777;28;20033;-63
2021/01/03 01:35:14;;;;;;;97.32;32.45;;;;;;;-0.61;81.64;94371.00;5009979;28;20126;-61
2021/01/03 01:37:40;;;;;;;95.28;33.85;;;;;;;-0.82;82.63;94370.88;5008698;28;20068;-62
2021/01/03 01:40:07;;;;;;;100.90;33.17;;;;;;;-0.60;82.52;94430.81;5008506;28;20042;-62
2021/01/03 01:42:33;;;;;;;101.60;34.17;;;;;;;-0.95;83.47;94388.78;5011695;28;20041;-62
2021/01/03 01:44:59;;;;;;;103.88;33.25;;;;;;;-0.45;83.35;94432.72;5009769;28;20042;-62
2021/01/03 01:47:28;;;;;;;91.95;31.83;;;;;;;-0.62;82.93;94416.41;5009786;28;20046;-62
2021/01/03 01:49:57;;;;;;;97.38;31.20;;;;;;;-0.76;83.67;94442.19;5009684;28;20048;-61
2021/01/03 01:52:28;;;;;;;100.85;32.67;;;;;;;-0.42;82.95;94389.63;5009669;28;20030;-63
2021/01/03 01:54:58;;;;;;;104.78;33.63;;;;;;;0.28;82.93;94418.97;5011560;28;20038;-62
2021/01/03 01:57:33;;;;;;;105.60;34.08;;;;;;;0.50;81.69;94411.69;5010124;28;20063;-63
2021/01/03 02:00:27;;;;;;;92.25;29.38;;;;;;;-0.29;81.02;94425.75;5009452;28;20199;-63
2021/01/03 02:03:07;;;;;;;94.22;31.60;;;;;;;-0.16;81.62;94417.47;5007085;28;20057;-61
2021/01/03 02:05:41;;;;;;;87.07;31.10;;;;;;;-0.65;82.20;94370.69;5009609;28;20134;-63
2021/01/03 02:08:37;;;;;;;89.57;30.50;;;;;;;-0.71;83.49;94423.94;5009621;28;20034;-62
2021/01/03 02:11:05;;;;;;;99.13;31.40;;;;;;;-0.41;82.83;94378.94;5004264;28;20580;-62
2021/01/03 02:13:47;;;;;;;100.85;32.67;;;;;;;-0.60;83.39;94425.59;5008969;28;20044;-62
2021/01/03 02:16:20;;;;;;;98.80;33.33;;;;;;;-0.43;83.71;94404.50;5007945;28;20028;-62
2021/01/03 02:18:46;;;;;;;92.32;30.38;;;;;;;-0.76;83.26;94383.94;5011054;28;20025;-62
2021/01/03 02:21:26;;;;;;;85.43;29.50;;;;;;;-1.21;84.39;94372.13;5008995;28;20038;-63
2021/01/03 02:24:01;;;;;;;91.88;29.42;;;;;;;-1.14;84.67;94331.72;5009197;28;20384;-63
2021/01/03 02:26:30;;;;;;;88.85;29.67;;;;;;;-0.61;84.71;94413.56;5009330;28;20038;-62
2021/01/03 02:28:56;;;;;;;87.85;32.03;;;;;;;-0.37;83.19;94393.06;5008772;28;20037;-61
2021/01/03 02:31:31;;;;;;;88.78;30.92;;;;;;;-0.22;82.77;94405.41;5008880;28;20091;-62
2021/01/03 02:33:57;;;;;;;77.90;28.77;;;;;;;-0.30;82.78;94393.63;5010908;28;20520;-62
2021/01/03 02:36:34;;;;;;;104.72;32.03;;;;;;;-0.28;82.72;94388.91;5009105;28;20038;-62
2021/01/03 02:39:11;;;;;;;90.07;31.27;;;;;;;-0.16;82.32;94391.31;5008767;28;20773;-62
2021/01/03 02:41:36;;;;;;;92.90;31.52;;;;;;;-0.27;82.51;94394.94;5008996;28;20088;-63
2021/01/03 02:44:02;;;;;;;93.80;30.83;;;;;;;-0.66;83.21;94348.25;5008873;28;20480;-63
2021/01/03 02:46:27;;;;;;;93.05;31.10;;;;;;;-0.96;81.98;94248.84;5008888;28;20091;-63
2021/01/03 02:48:53;;;;;;;88.60;29.73;;;;;;;-0.82;82.80;94343.94;5010592;28;20057;-61
2021/01/03 02:51:18;;;;;;;93.80;31.08;;;;;;;-0.47;81.79;94377.31;5008553;28;20034;-63
2021/01/03 02:53:44;;;;;;;93.35;31.30;;;;;;;0.10;81.56;94392.19;5007488;28;20034;-62
2021/01/03 02:56:09;;;;;;;75.28;26.08;;;;;;;-0.76;83.36;94389.97;5008854;28;20107;-62
2021/01/03 02:58:34;;;;;;;90.63;29.35;;;;;;;-0.83;83.62;94343.16;5008566;28;20037;-62
2021/01/03 03:01:00;;;;;;;88.38;30.20;;;;;;;-1.05;83.85;94335.47;5007529;28;20026;-62
2021/01/03 03:03:26;;;;;;;96.05;31.02;;;;;;;-0.26;82.65;94341.63;5010356;28;20023;-62
2021/01/03 03:05:51;;;;;;;93.28;32.47;;;;;;;0.21;81.89;94364.28;5007393;28;20038;-61
2021/01/03 03:08:16;;;;;;;94.57;31.45;;;;;;;0.33;80.69;94388.38;5008567;28;20042;-61
2021/01/03 03:10:41;;;;;;;87.28;31.42;;;;;;;-0.03;80.96;94362.09;5008626;28;20046;-62
2021/01/03 03:13:07;;;;;;;95.47;31.35;;;;;;;0.25;80.30;94367.94;5008305;28;20038;-62
2021/01/03 03:15:32;;;;;;;85.20;31.42;;;;;;;-0.23;80.02;94314.97;5008467;23;20047;-63
2021/01/03 03:17:59;;;;;;;84.90;28.20;;;;;;;-0.02;79.63;94368.13;4988878;28;20050;-64
2021/01/03 03:20:24;;;;;;;87.60;31.85;;;;;;;0.03;80.40;94349.06;4988793;28;20039;-64
2021/01/03 03:22:50;;;;;;;86.80;30.45;;;;;;;0.09;79.78;94364.50;4988678;28;20400;-65
2021/01/03 03:25:16;;;;;;;80.00;28.92;;;;;;;0.34;79.28;94383.91;4988945;28;20030;-65
2021/01/03 03:27:41;;;;;;;80.80;30.67;;;;;;;0.33;79.14;94388.38;4990778;28;20038;-65
2021/01/03 03:30:10;;;;;;;84.85;29.77;;;;;;;0.29;79.55;94400.38;4974445;28;20039;-64
2021/01/03 03:32:36;;;;;;;76.22;27.63;;;;;;;0.29;78.77;94383.91;4975079;28;20042;-69
2021/01/03 03:35:03;;;;;;;87.40;29.90;;;;;;;0.16;78.47;94353.81;4991703;28;20062;-66
2021/01/03 03:37:28;;;;;;;77.65;28.65;;;;;;;0.83;78.10;94412.28;4974375;28;20045;-64
2021/01/03 03:39:53;;;;;;;72.25;26.50;;;;;;;0.27;77.94;94381.56;4994296;28;20466;-64
2021/01/03 03:42:19;;;;;;;69.97;26.88;;;;;;;-0.28;79.22;94354.94;4991073;28;20042;-64
2021/01/03 03:44:44;;;;;;;74.30;27.63;;;;;;;0.21;78.25;94379.97;4992509;28;20042;-65
2021/01/03 03:47:10;;;;;;;75.32;26.63;;;;;;;0.12;78.43;94399.81;4992689;28;20097;-65
2021/01/03 03:49:35;;;;;;;79.70;28.42;;;;;;;-0.42;78.77;94308.63;4992266;28;20535;-64
2021/01/03 03:52:03;;;;;;;69.43;26.08;;;;;;;0.17;78.41;94400.63;4992195;28;20054;-64
2021/01/03 03:54:28;;;;;;;73.30;26.00;;;;;;;0.01;78.73;94378.06;4994195;28;20422;-65
2021/01/03 03:56:59;;;;;;;75.60;26.65;;;;;;;0.42;78.27;94393.88;4992535;28;20089;-65
2021/01/03 03:59:25;;;;;;;71.60;27.65;;;;;;;0.90;76.91;94390.00;4991967;28;20034;-65
2021/01/03 04:01:51;;;;;;;70.30;26.70;;;;;;;0.70;76.37;94327.97;4991988;28;20048;-65
2021/01/03 04:04:18;;;;;;;68.70;27.42;;;;;;;0.70;76.01;94387.38;4992276;28;20719;-65
2021/01/03 04:06:44;;;;;;;71.03;26.27;;;;;;;-0.44;79.02;94323.78;4994255;28;20653;-65
2021/01/03 04:09:10;;;;;;;67.40;24.90;;;;;;;-0.03;78.94;94383.03;4991928;28;20126;-65
2021/01/03 04:11:40;;;;;;;69.55;26.63;;;;;;;-0.05;78.38;94343.28;4992105;28;20397;-65
2021/01/03 04:14:06;;;;;;;71.45;25.73;;;;;;;0.38;78.24;94372.69;4974679;28;20500;-65
2021/01/03 04:16:31;;;;;;;67.88;27.40;;;;;;;0.26;77.43;94338.13;4992033;28;20034;-65
2021/01/03 04:18:57;;;;;;;66.35;26.75;;;;;;;0.12;78.13;94368.44;4994292;28;20457;-64
2021/01/03 04:21:22;;;;;;;63.70;26.75;;;;;;;0.13;78.29;94343.84;4991731;28;20037;-65
2021/01/03 04:23:47;;;;;;;70.03;27.10;;;;;;;0.09;78.04;94346.19;4991589;28;20041;-64
2021/01/03 04:26:20;;;;;;;70.85;26.52;;;;;;;0.08;77.77;94343.84;4991927;28;20113;-65
2021/01/03 04:28:46;;;;;;;70.25;27.40;;;;;;;0.00;78.29;94350.38;4991739;28;20166;-64
2021/01/03 04:31:16;;;;;;;67.55;27.08;;;;;;;0.43;76.98;94354.38;4974443;28;20038;-64
2021/01/03 04:33:41;;;;;;;61.42;24.83;;;;;;;0.86;76.09;94357.53;4976129;28;20022;-65
2021/01/03 04:36:11;;;;;;;71.03;25.77;;;;;;;0.36;76.62;94373.97;4991600;28;20117;-65
2021/01/03 04:38:36;;;;;;;63.58;25.80;;;;;;;0.01;77.12;94359.78;4991436;28;20575;-65
2021/01/03 04:41:01;;;;;;;70.20;26.33;;;;;;;0.48;76.47;94351.78;4991370;28;20125;-65
2021/01/03 04:43:27;;;;;;;65.43;27.48;;;;;;;0.88;75.49;94380.88;4991361;28;20045;-65
2021/01/03 04:46:01;;;;;;;71.13;27.08;;;;;;;1.08;74.95;94372.22;4993528;28;20058;-65
2021/01/03 04:48:30;;;;;;;70.65;26.23;;;;;;;1.32;74.62;94369.84;4991651;28;20097;-65
2021/01/03 04:51:26;;;;;;;63.70;24.23;;;;;;;0.44;75.78;94360.38;4991306;28;20038;-64
2021/01/03 04:54:24;;;;;;;68.05;25.00;;;;;;;0.66;76.67;94376.63;4991287;28;20400;-64
2021/01/03 04:56:53;;;;;;;69.60;24.77;;;;;;;-0.16;78.35;94373.03;4948369;28;20096;-64
2021/01/03 04:59:43;;;;;;;61.85;24.52;;;;;;;0.11;77.80;94380.72;4990881;28;20507;-65
2021/01/03 05:02:26;;;;;;;71.22;26.75;;;;;;;0.17;78.33;94384.13;4973596;28;20169;-65
2021/01/03 05:05:03;;;;;;;62.20;24.80;;;;;;;0.34;77.93;94383.91;4991089;28;20054;-64
2021/01/03 05:07:34;;;;;;;65.18;25.55;;;;;;;0.50;76.75;94393.38;4991203;28;20038;-65
2021/01/03 05:10:22;;;;;;;64.47;25.83;;;;;;;0.41;77.48;94393.09;4990926;28;20038;-66
2021/01/03 05:13:09;;;;;;;67.22;24.80;;;;;;;0.78;76.53;94386.88;4992776;28;20384;-65
2021/01/03 05:15:36;;;;;;;66.68;24.75;;;;;;;0.95;74.98;94369.06;4991219;28;20058;-63
2021/01/03 05:18:04;;;;;;;67.85;25.17;;;;;;;1.13;74.81;94393.19;4973493;28;20046;-65
2021/01/03 05:20:29;;;;;;;64.70;24.98;;;;;;;0.87;74.79;94364.38;4989221;28;20525;-65
2021/01/03 05:23:13;;;;;;;65.30;24.73;;;;;;;0.17;77.26;94387.53;4990740;28;20042;-64
2021/01/03 05:25:41;;;;;;;72.75;25.20;;;;;;;-0.23;79.37;94392.59;4973396;28;20046;-64
2021/01/03 05:28:11;;;;;;;77.32;26.77;;;;;;;0.40;77.71;94388.09;4973034;28;20498;-65
2021/01/03 05:30:37;;;;;;;76.22;26.38;;;;;;;-0.11;77.50;94327.81;4992410;28;20034;-64
2021/01/03 05:33:11;;;;;;;74.57;26.35;;;;;;;0.10;77.68;94371.28;4987992;28;20042;-64
2021/01/03 05:35:42;;;;;;;67.38;24.70;;;;;;;0.13;77.65;94372.63;4990541;28;20058;-66
2021/01/03 05:38:09;;;;;;;81.10;26.40;;;;;;;0.02;77.86;94371.00;4990634;28;20656;-65
2021/01/03 05:40:44;;;;;;;74.15;25.92;;;;;;;0.76;76.98;94383.72;4972468;28;20289;-65
2021/01/03 05:43:22;;;;;;;69.63;25.45;;;;;;;0.08;77.64;94356.91;4990061;28;20030;-65
2021/01/03 05:45:58;;;;;;;71.95;26.17;;;;;;;0.11;77.97;94396.41;4992396;28;20079;-65
2021/01/03 05:48:27;;;;;;;63.72;25.52;;;;;;;-0.28;79.28;94373.25;4973008;28;20069;-65
2021/01/03 05:50:52;;;;;;;66.07;26.40;;;;;;;-0.30;79.60;94383.16;4989933;28;20041;-64
2021/01/03 05:53:29;;;;;;;73.80;27.70;;;;;;;0.21;79.47;94408.75;4989561;28;20050;-65
2021/01/03 05:55:57;;;;;;;73.20;28.85;;;;;;;0.16;78.91;94388.59;4990143;28;20042;-65
2021/01/03 05:58:36;;;;;;;77.13;28.35;;;;;;;0.50;77.68;94422.94;4989763;28;20124;-64
2021/01/03 06:01:18;;;;;;;69.28;27.90;;;;;;;0.31;78.73;94411.38;4990072;28;20541;-64
2021/01/03 06:03:57;;;;;;;79.65;28.55;;;;;;;0.57;77.51;94396.53;4974371;28;20365;-65
2021/01/03 06:06:52;;;;;;;84.30;30.70;;;;;;;0.78;76.55;94392.13;4989993;28;20084;-64
2021/01/03 06:09:21;;;;;;;72.43;26.02;;;;;;;-0.07;79.04;94412.53;4971907;28;20035;-63
2021/01/03 06:12:01;;;;;;;71.38;28.67;;;;;;;-0.01;78.36;94364.47;4989678;28;20093;-63
2021/01/03 06:14:28;;;;;;;75.53;28.13;;;;;;;-0.26;79.37;94386.03;4989745;28;20531;-64
2021/01/03 06:17:04;;;;;;;76.70;28.60;;;;;;;0.08;79.01;94414.44;4989749;28;20055;-64
2021/01/03 06:19:35;;;;;;;74.07;29.60;;;;;;;0.31;78.78;94410.56;4989558;28;20038;-64
2021/01/03 06:22:09;;;;;;;76.55;29.20;;;;;;;0.03;78.53;94386.44;4989528;28;20033;-66
2021/01/03 06:24:38;;;;;;;80.10;28.50;;;;;;;-0.34;79.92;94381.31;4973983;28;20073;-63
2021/01/03 06:27:11;;;;;;;69.13;28.90;;;;;;;0.38;78.56;94417.16;4989420;28;20053;-64
2021/01/03 06:29:48;;;;;;;80.03;29.17;;;;;;;0.14;77.54;94380.19;4989337;28;20381;-64
2021/01/03 06:32:41;;;;;;;66.45;27.10;;;;;;;0.09;79.18;94408.94;4989224;28;20057;-64
2021/01/03 06:35:25;;;;;;;76.18;29.60;;;;;;;0.67;77.24;94427.19;4989343;28;20086;-64
2021/01/03 06:38:02;;;;;;;79.75;29.70;;;;;;;0.49;77.09;94423.97;4972020;28;20052;-65
2021/01/03 06:40:36;;;;;;;74.25;27.73;;;;;;;0.61;76.64;94422.97;4989282;28;20042;-65
2021/01/03 06:43:23;;;;;;;77.68;29.33;;;;;;;0.58;76.75;94426.09;4971602;28;20037;-65
2021/01/03 06:46:04;;;;;;;71.93;27.13;;;;;;;0.02;78.31;94399.78;4991369;28;20445;-65
2021/01/03 06:48:45;;;;;;;75.50;29.17;;;;;;;0.56;77.47;94425.56;4989414;28;20138;-64
2021/01/03 06:51:19;;;;;;;65.13;27.48;;;;;;;0.76;76.67;94426.38;4989077;28;20042;-64
2021/01/03 06:54:17;;;;;;;66.07;26.25;;;;;;;0.98;75.45;94405.22;4989155;28;20054;-64
2021/01/03 06:57:01;;;;;;;59.78;26.27;;;;;;;1.24;74.71;94426.19;4971685;28;20042;-64
2021/01/03 06:59:38;;;;;;;71.32;28.85;;;;;;;1.17;74.19;94431.66;4988778;28;20054;-64
2021/01/03 07:02:04;;;;;;;67.13;26.83;;;;;;;1.65;73.99;94434.00;4971449;28;20042;-64
2021/01/03 07:04:34;;;;;;;70.90;26.92;;;;;;;1.91;73.46;94434.72;4988136;28;20101;-63
2021/01/03 07:07:02;;;;;;;62.55;26.20;;;;;;;2.12;73.02;94438.06;4989073;28;20113;-65
2021/01/03 07:09:28;;;;;;;65.15;26.38;;;;;;;2.24;71.94;94441.97;4990757;28;20026;-66
2021/01/03 07:11:56;;;;;;;64.45;26.48;;;;;;;2.39;71.41;94432.47;4988799;28;20105;-65
2021/01/03 07:14:21;;;;;;;59.90;24.95;;;;;;;2.34;69.81;94433.25;4988625;28;20563;-65
2021/01/03 07:16:55;;;;;;;57.55;23.88;;;;;;;1.03;72.21;94436.66;4989063;28;20129;-65
2021/01/03 07:19:30;;;;;;;56.63;24.80;;;;;;;1.67;71.45;94435.28;4971298;28;20439;-65
2021/01/03 07:22:02;;;;;;;59.88;24.75;;;;;;;1.59;71.84;94435.03;4990760;28;20484;-64
2021/01/03 07:24:40;;;;;;;59.08;24.60;;;;;;;1.27;72.44;94438.72;4988158;28;20050;-64
2021/01/03 07:27:29;;;;;;;59.17;24.40;;;;;;;1.42;72.67;94446.59;4989160;28;20403;-64
2021/01/03 07:29:54;;;;;;;60.20;24.58;;;;;;;1.09;73.09;94445.28;4988693;28;20045;-64
2021/01/03 07:32:21;;;;;;;57.28;25.88;;;;;;;0.84;72.48;94393.69;4988686;28;20604;-64
2021/01/03 07:34:52;;;;;;;53.55;23.40;;;;;;;1.04;72.52;94442.66;4988753;28;20443;-64
2021/01/03 07:37:21;;;;;;;55.53;25.02;;;;;;;1.48;72.65;94453.41;4988792;28;20034;-64
2021/01/03 07:40:05;;;;;;;53.22;22.85;;;;;;;1.74;71.93;94456.78;4990591;28;20023;-63
2021/01/03 07:42:58;;;;;;;56.28;23.90;;;;;;;1.60;72.52;94457.59;4989024;28;20074;-65
2021/01/03 07:45:32;;;;;;;52.67;24.33;;;;;;;2.01;71.88;94459.09;4988798;28;20443;-63
2021/01/03 07:47:58;;;;;;;56.97;24.63;;;;;;;2.28;70.23;94461.38;4971277;28;20045;-65
2021/01/03 07:50:26;;;;;;;56.13;24.05;;;;;;;2.44;69.62;94456.84;4988374;28;20049;-65
2021/01/03 07:53:25;;;;;;;59.33;25.33;;;;;;;2.55;69.61;94439.19;4969629;28;20484;-65
2021/01/03 07:55:51;;;;;;;57.13;25.52;;;;;;;2.78;68.76;94459.56;4988658;28;20507;-65
2021/01/03 07:58:22;;;;;;;53.63;22.90;;;;;;;2.75;67.66;94435.69;4988371;28;20034;-64
2021/01/03 08:00:54;;;;;;;51.27;22.60;;;;;;;2.83;66.88;94459.53;4973347;28;20034;-65
2021/01/03 08:03:23;;;;;;;59.25;25.25;;;;;;;2.68;66.53;94427.34;4988569;28;20273;-64
2021/01/03 08:05:48;;;;;;;55.58;23.25;;;;;;;3.05;67.18;94458.34;4988622;28;20045;-64
2021/01/03 08:08:26;;;;;;;50.05;22.90;;;;;;;2.48;66.55;94465.75;4971021;28;20035;-65
2021/01/03 08:11:05;;;;;;;57.10;23.98;;;;;;;2.62;66.52;94454.69;4988712;28;20534;-64
2021/01/03 08:13:42;;;;;;;53.10;23.00;;;;;;;2.95;66.83;94471.56;4988377;28;20041;-64
2021/01/03 08:16:08;;;;;;;47.65;22.60;;;;;;;2.98;66.68;94453.41;4974028;28;20027;-65
2021/01/03 08:18:41;;;;;;;52.40;23.73;;;;;;;3.04;65.63;94468.09;4993925;28;20026;-65
2021/01/03 08:21:15;;;;;;;54.45;24.20;;;;;;;2.70;65.98;94472.47;4992122;28;20460;-64
2021/01/03 08:23:41;;;;;;;53.45;23.60;;;;;;;2.56;66.48;94443.41;4992016;28;20034;-64
2021/01/03 08:26:12;;;;;;;49.75;23.60;;;;;;;2.47;66.16;94447.66;4974402;28;20520;-65
2021/01/03 08:28:53;;;;;;;51.58;24.30;;;;;;;2.57;66.68;94411.63;4991645;28;20046;-66
2021/01/03 08:31:19;;;;;;;58.42;25.45;;;;;;;3.04;65.93;94460.19;4991622;28;20030;-65
2021/01/03 08:33:47;;;;;;;52.30;23.05;;;;;;;2.82;65.02;94470.31;4993545;28;20158;-64
2021/01/03 08:36:19;;;;;;;49.65;22.67;;;;;;;2.56;65.43;94446.81;4991645;28;20396;-64
2021/01/03 08:38:46;;;;;;;56.15;25.05;;;;;;;2.77;65.75;94447.50;4991365;28;20034;-65
2021/01/03 08:41:26;;;;;;;48.05;22.85;;;;;;;2.41;65.38;94417.25;4973987;28;20068;-64
2021/01/03 08:43:52;;;;;;;49.17;23.40;;;;;;;3.18;65.29;94502.44;4991316;28;20085;-65
2021/01/03 08:46:28;;;;;;;52.00;23.30;;;;;;;3.10;64.37;94490.63;4973612;28;20077;-65
2021/01/03 08:49:01;;;;;;;50.45;23.15;;;;;;;3.36;64.26;94500.97;4993000;28;20171;-65
2021/01/03 08:51:26;;;;;;;;;;;;;;;2.49;65.77;94504.06;4992058;28;20034;-63
2021/01/03 08:53:57;;;;;;;51.53;22.90;;;;;;;2.03;66.92;94480.59;4991192;28;20024;-64
2021/01/03 08:56:27;;;;;;;49.65;23.17;;;;;;;1.66;68.32;94496.66;4973843;28;20158;-67
2021/01/03 08:58:52;;;;;;;48.78;23.27;;;;;;;1.98;68.17;94503.41;4990680;28;20049;-66
2021/01/03 09:01:30;;;;;;;49.70;23.05;;;;;;;2.47;67.77;94508.81;4990797;28;20030;-68
2021/01/03 09:04:01;;;;;;;49.40;23.30;;;;;;;2.70;66.25;94511.88;4975295;28;20048;-66
2021/01/03 09:06:28;;;;;;;50.78;22.25;;;;;;;2.73;65.75;94467.47;4991240;28;20034;-66
2021/01/03 09:08:54;;;;;;;51.28;23.23;;;;;;;3.08;65.30;94498.03;4990553;28;20041;-68
2021/01/03 09:11:27;;;;;;;48.47;22.48;;;;;;;3.23;63.22;94527.91;4991150;28;20042;-64
2021/01/03 09:14:20;;;;;;;48.80;22.90;;;;;;;3.46;64.15;94529.06;4991673;28;20061;-67
2021/01/03 09:16:57;;;;;;;44.85;22.77;;;;;;;3.52;64.10;94512.97;4992128;28;20050;-67
2021/01/03 09:19:32;;;;;;;44.13;21.48;;;;;;;3.52;63.13;94536.63;4990858;28;20074;-63
2021/01/03 09:22:01;;;;;;;50.28;22.60;;;;;;;2.99;63.65;94525.13;4993876;28;20037;-64
2021/01/03 09:24:30;;;;;;;45.80;22.50;;;;;;;3.40;63.95;94549.34;4991849;28;20070;-62
2021/01/03 09:26:58;;;;;;;53.08;21.65;;;;;;;3.44;63.79;94524.06;4973289;28;20042;-64
2021/01/03 09:29:30;;;;;;;45.65;21.95;;;;;;;3.84;63.69;94543.25;4973453;28;20392;-62
2021/01/03 09:32:11;;;;;;;121.00;52.28;;;;;;;4.04;63.02;94542.25;4991585;28;20055;-65
2021/01/03 09:35:05;;;;;;;46.67;23.20;;;;;;;4.13;63.31;94554.53;4988720;28;20038;-66
2021/01/03 09:37:33;;;;;;;55.42;24.02;;;;;;;3.84;61.89;94559.81;4991705;28;20039;-62
2021/01/03 09:40:18;;;;;;;49.38;23.52;;;;;;;3.55;63.41;94558.97;4993344;28;20030;-64
2021/01/03 09:42:46;;;;;;;50.60;23.50;;;;;;;3.67;62.93;94561.25;4991398;28;20034;-64
2021/01/03 09:45:49;;;;;;;43.92;23.00;;;;;;;2.79;62.50;94420.97;4986656;28;20384;-63
2021/01/03 09:48:46;;;;;;;46.60;22.23;;;;;;;3.87;62.97;94563.72;4986418;28;20030;-62
2021/01/03 09:51:33;;;;;;;47.65;22.00;;;;;;;3.12;64.38;94564.75;4974558;28;20045;-63
2021/01/03 09:54:12;;;;;;;41.83;20.33;;;;;;;2.59;63.57;94427.88;4993085;28;20034;-63
2021/01/03 09:56:39;;;;;;;42.88;20.90;;;;;;;4.04;62.80;94572.00;4990335;28;20087;-63
2021/01/03 09:59:16;;;;;;;45.28;22.70;;;;;;;3.69;61.82;94520.47;4989788;28;20396;-63
2021/01/03 10:01:50;;;;;;;44.33;20.35;;;;;;;4.26;62.23;94573.41;4991130;28;20065;-60
2021/01/03 10:04:27;;;;;;;44.10;21.98;;;;;;;4.15;61.66;94549.03;4990954;28;20046;-72
2021/01/03 10:07:12;;;;;;;47.42;21.58;;;;;;;4.03;61.60;94525.69;4991130;28;20066;-64
2021/01/03 10:09:37;;;;;;;40.92;20.13;;;;;;;3.48;61.63;94551.41;4990498;28;20043;-68
2021/01/03 10:12:19;;;;;;;40.20;20.55;;;;;;;3.58;61.50;94567.09;4992930;28;20034;-71
2021/01/03 10:14:45;;;;;;;;;;;;;;;3.47;62.41;94562.16;4974314;28;20078;-69
2021/01/03 10:17:19;;;;;;;44.15;21.08;;;;;;;2.72;63.46;94528.16;4990901;28;19918;-76
2021/01/03 10:19:46;;;;;;;42.75;21.50;;;;;;;2.85;65.08;94559.06;4990493;28;20031;-61
2021/01/03 10:22:39;;;;;;;47.78;23.27;;;;;;;3.02;64.91;94538.53;4989607;28;20050;-64
2021/01/03 10:25:07;;;;;;;44.13;21.45;;;;;;;3.47;64.04;94557.69;4985506;28;20038;-64
2021/01/03 10:27:33;;;;;;;41.55;21.08;;;;;;;3.55;64.60;94556.34;4972812;28;20069;-62
2021/01/03 10:29:58;;;;;;;44.22;21.20;;;;;;;3.50;62.47;94551.91;4992371;28;20034;-62
2021/01/03 10:32:25;;;;;;;48.38;21.38;;;;;;;3.27;62.83;94492.88;4990314;28;20042;-67
2021/01/03 10:34:51;;;;;;;43.42;21.17;;;;;;;3.89;62.01;94561.63;4972321;28;20046;-69
2021/01/03 10:37:16;;;;;;;41.00;21.05;;;;;;;2.60;64.36;94544.97;4990140;28;20511;-65
2021/01/03 10:39:42;;;;;;;47.97;21.08;;;;;;;1.73;67.67;94512.09;4989948;28;20050;-68
2021/01/03 10:42:08;;;;;;;43.10;21.15;;;;;;;2.02;65.83;94476.41;4981548;28;20113;-64
2021/01/03 10:44:34;;;;;;;48.17;22.08;;;;;;;1.21;68.40;94471.22;4992183;28;20037;-61
2021/01/03 10:47:00;;;;;;;38.45;18.52;;;;;;;0.52;68.98;94420.06;4989881;28;20038;-62
2021/01/03 10:49:25;;;;;;;43.60;21.13;;;;;;;2.12;68.07;94564.78;4988697;28;20069;-63
2021/01/03 10:51:51;;;;;;;47.58;20.55;;;;;;;2.13;67.29;94550.63;4989740;28;20056;-62
2021/01/03 10:54:20;;;;;;;42.45;20.45;;;;;;;2.01;68.06;94544.88;4990305;28;20429;-61
2021/01/03 10:56:51;;;;;;;43.90;20.98;;;;;;;2.04;67.75;94541.69;4991827;28;20026;-61
2021/01/03 10:59:16;;;;;;;47.75;23.30;;;;;;;1.97;65.73;94428.41;4989297;28;20051;-62
2021/01/03 11:01:42;;;;;;;43.78;20.05;;;;;;;2.37;65.32;94466.06;4972571;28;20050;-62
2021/01/03 11:04:08;;;;;;;42.13;21.23;;;;;;;2.68;65.05;94496.38;4990261;28;20058;-64
2021/01/03 11:06:36;;;;;;;44.03;20.30;;;;;;;3.36;63.90;94549.09;4990202;28;20038;-60
2021/01/03 11:09:02;;;;;;;38.03;19.67;;;;;;;3.38;62.52;94497.03;4991879;28;20054;-63
2021/01/03 11:11:27;;;;;;;41.78;20.52;;;;;;;3.51;62.41;94518.50;4989709;28;20050;-62
2021/01/03 11:13:53;;;;;;;35.35;19.45;;;;;;;2.62;62.30;94425.78;4990097;28;20046;-61
2021/01/03 11:16:18;;;;;;;41.35;19.75;;;;;;;2.55;63.22;94484.63;4972615;28;20144;-61
2021/01/03 11:18:43;;;;;;;36.22;19.33;;;;;;;3.20;62.43;94446.97;4989276;28;20046;-63
2021/01/03 11:21:13;;;;;;;35.90;19.25;;;;;;;3.21;61.50;94465.06;4990036;28;20038;-60
2021/01/03 11:23:38;;;;;;;37.78;18.98;;;;;;;3.37;60.85;94484.16;4974232;28;20525;-62
2021/01/03 11:26:04;;;;;;;34.80;18.55;;;;;;;3.05;61.61;94461.75;4989525;28;20079;-63
2021/01/03 11:28:30;;;;;;;33.63;18.20;;;;;;;2.80;61.75;94430.41;4989298;28;20500;-63
2021/01/03 11:30:55;;;;;;;35.78;19.08;;;;;;;2.81;60.90;94351.34;4970205;28;20523;-63
2021/01/03 11:33:21;;;;;;;38.72;18.92;;;;;;;3.95;60.98;94539.47;4989920;28;20027;-63
2021/01/03 11:35:46;;;;;;;35.13;19.90;;;;;;;2.65;63.69;94517.91;4991791;28;20105;-63
2021/01/03 11:38:11;;;;;;;37.40;18.75;;;;;;;2.60;65.19;94541.56;4989676;28;20042;-63
2021/01/03 11:40:36;;;;;;;37.17;19.15;;;;;;;2.38;64.66;94454.50;4989570;28;20042;-62